Airfield :
LOGIN :

Register | Disclaimer

   EN    FR    IT 

 










Legend :    VFR   Marginal VFR   IFR   Intensive IFR   Very Intensive IFR
Visi :
Ceiling :
>= 8 km
>= 3000ft
5 to 8 km
1000 to 3000 ft
1500m to 5 km
500 to 1000 ft
800 to 1500m
200 to 500 ft
< 800m
< 200 ft
Symbols :   Thunderstorms  Fog  Heavy snow  Heavy precipitations  Wind > 20 kt
SIGMETs :     Misc.  Thunderstorms  Icing  Turbulence  Mountain Waves  Volcanic Ashes






- Airport Elevation : 1041 ft
- IATA code : XMF


LFSM - Montbéliard-Courcelles

CURRENT METAR :
  • 141500Z AUTO 28009KT 250V340 CAVOK 26/07 Q1020

EXPIRED METARs :
  • 141430Z AUTO 28007KT 220V340 CAVOK 26/11 Q1020
  • 141400Z AUTO 26009KT 220V300 CAVOK 26/07 Q1021
  • 141330Z AUTO 24013KT CAVOK 25/09 Q1021
  • 141300Z AUTO 24008KT 210V270 CAVOK 25/12 Q1022
  • 141230Z AUTO 25009KT 160V300 CAVOK 25/12 Q1022
  • 141200Z AUTO 25011KT CAVOK 24/11 Q1022
  • 141130Z AUTO 24012KT CAVOK 24/11 Q1023
  • 141100Z AUTO 23008KT 190V260 CAVOK 24/12 Q1023

TAF N/A



MET'MAP, your aeronautical weather chart ! - Copyright ORBIFLY December 2007 - Disclaimer

ORBIFLY MET'MAP TEAM :

Programming & Development : Alexandra Zaïnal
Original concept : Baudouin d'Aumeries
Technical & hardware support : Manuel Goepfert
Assistance : Marc-Olivier Méhu




SOURCES & CREDITS :

   NOAA